Time;durP1;ratioP1;P1;durP2;ratioP2;P2;SDS_P1;SDS_P2;PMS_P1;PMS_P2;Temp;Humidity;BMP_temperature;BMP_pressure;BME280_temperature;BME280_humidity;BME280_pressure;Samples;Min_cycle;Max_cycle;Signal;HPM_P1;HPM_P2
2023/07/01 00:02:06;;;;;;;3.37;3.17;;;18.20;99.90;;;;;;4968555;28;20459;-67
2023/07/01 00:04:33;;;;;;;3.13;2.83;;;17.80;99.90;;;;;;4981896;28;20535;-66
2023/07/01 00:07:00;;;;;;;3.27;2.97;;;17.70;99.90;;;;;;4972082;28;20985;-66
2023/07/01 00:09:27;;;;;;;3.10;2.80;;;17.70;99.90;;;;;;4971163;28;20561;-66
2023/07/01 00:11:54;;;;;;;3.63;3.10;;;17.70;99.90;;;;;;4967110;28;20840;-68
2023/07/01 00:14:23;;;;;;;3.20;2.90;;;17.60;99.90;;;;;;4965477;28;20554;-66
2023/07/01 00:16:50;;;;;;;2.83;2.40;;;17.50;99.90;;;;;;4976861;28;20492;-66
2023/07/01 00:19:17;;;;;;;3.30;2.90;;;17.40;99.90;;;;;;4969285;28;20478;-66
2023/07/01 00:21:44;;;;;;;2.23;2.10;;;17.40;99.90;;;;;;4969787;28;20467;-66
2023/07/01 00:24:11;;;;;;;3.93;2.77;;;17.30;99.90;;;;;;4966632;28;25509;-66
2023/07/01 00:26:38;;;;;;;4.20;2.40;;;17.30;99.90;;;;;;4963157;28;20997;-66
2023/07/01 00:29:05;;;;;;;3.50;2.60;;;17.30;99.90;;;;;;4969706;28;20479;-66
2023/07/01 00:31:34;;;;;;;5.60;2.60;;;17.30;99.90;;;;;;4970718;28;20480;-66
2023/07/01 00:34:01;;;;;;;2.80;2.60;;;17.20;99.90;;;;;;4979677;28;20454;-68
2023/07/01 00:36:28;;;;;;;2.77;2.57;;;17.20;99.90;;;;;;4967606;28;21289;-68
2023/07/01 00:38:55;;;;;;;4.87;2.50;;;17.20;99.90;;;;;;4970783;28;20479;-66
2023/07/01 00:41:22;;;;;;;3.00;2.67;;;17.10;99.90;;;;;;4966104;28;21246;-66
2023/07/01 00:43:49;;;;;;;4.57;2.87;;;17.00;99.90;;;;;;4976540;28;20549;-68
2023/07/01 00:46:16;;;;;;;3.20;2.90;;;17.00;99.90;;;;;;4972394;28;20544;-65
2023/07/01 00:48:45;;;;;;;3.23;2.90;;;17.00;99.90;;;;;;4971602;28;20561;-67
2023/07/01 00:51:13;;;;;;;3.20;3.00;;;16.90;99.90;;;;;;4970194;28;20484;-67
2023/07/01 00:53:40;;;;;;;4.50;3.13;;;16.90;99.90;;;;;;4971470;28;20803;-67
2023/07/01 00:56:07;;;;;;;3.10;2.80;;;16.90;99.90;;;;;;4975636;28;20616;-67
2023/07/01 00:58:35;;;;;;;3.30;2.83;;;16.90;99.90;;;;;;4974230;28;20540;-67
2023/07/01 01:01:08;;;;;;;2.83;2.63;;;16.80;99.90;;;;;;4968356;28;20548;-67
2023/07/01 01:03:42;;;;;;;3.70;3.37;;;16.90;99.90;;;;;;4972037;28;20467;-68
2023/07/01 01:06:16;;;;;;;4.70;3.40;;;16.70;99.90;;;;;;4972727;28;20492;-67
2023/07/01 01:08:54;;;;;;;4.10;2.80;;;16.70;99.90;;;;;;4971746;28;20576;-68
2023/07/01 01:11:23;;;;;;;4.50;3.07;;;16.60;99.90;;;;;;4971118;28;20780;-68
2023/07/01 01:13:50;;;;;;;4.53;3.53;;;16.60;99.90;;;;;;4973574;28;20473;-66
2023/07/01 01:16:17;;;;;;;3.50;3.17;;;16.60;99.90;;;;;;4969527;28;20609;-68
2023/07/01 01:18:45;;;;;;;3.63;3.33;;;16.50;99.90;;;;;;4974727;28;20563;-67
2023/07/01 01:21:16;;;;;;;3.03;2.70;;;16.50;99.90;;;;;;4973761;28;20556;-67
2023/07/01 01:23:50;;;;;;;4.00;2.93;;;16.50;99.90;;;;;;4974858;28;20931;-67
2023/07/01 01:26:22;;;;;;;3.30;3.00;;;16.50;99.90;;;;;;4965551;28;20467;-67
2023/07/01 01:28:51;;;;;;;3.70;3.17;;;16.50;99.90;;;;;;4973011;28;20482;-67
2023/07/01 01:31:19;;;;;;;2.60;2.40;;;16.40;99.90;;;;;;4972298;28;20505;-67
2023/07/01 01:33:48;;;;;;;3.33;3.03;;;16.40;99.90;;;;;;4976452;28;20462;-67
2023/07/01 01:36:23;;;;;;;3.73;3.43;;;16.30;99.90;;;;;;4971056;28;20484;-68
2023/07/01 01:38:51;;;;;;;3.27;3.07;;;16.30;99.90;;;;;;4972516;28;20488;-68
2023/07/01 01:41:32;;;;;;;3.77;3.10;;;16.30;99.90;;;;;;4972126;28;20451;-66
2023/07/01 01:44:04;;;;;;;3.47;3.17;;;16.20;99.90;;;;;;4972720;28;20462;-68
2023/07/01 01:46:32;;;;;;;3.10;2.70;;;16.10;99.90;;;;;;4969215;28;20510;-68
2023/07/01 01:49:03;;;;;;;4.70;3.60;;;16.00;99.90;;;;;;4973075;28;20482;-67
2023/07/01 01:51:33;;;;;;;3.23;2.93;;;16.00;99.90;;;;;;4971475;28;20455;-66
2023/07/01 01:54:01;;;;;;;4.57;3.33;;;15.90;99.90;;;;;;4977648;28;21008;-66
2023/07/01 01:56:31;;;;;;;5.00;3.57;;;15.80;99.90;;;;;;4973040;28;20495;-66
2023/07/01 01:58:58;;;;;;;3.47;3.13;;;16.00;99.90;;;;;;4979613;28;20900;-67
2023/07/01 02:01:27;;;;;;;3.20;3.00;;;15.70;99.90;;;;;;4975418;28;20466;-68
2023/07/01 02:03:54;;;;;;;3.47;3.17;;;15.70;99.90;;;;;;4974473;28;20454;-66
2023/07/01 02:06:21;;;;;;;3.77;3.50;;;15.70;99.90;;;;;;4973921;28;20460;-67
2023/07/01 02:08:48;;;;;;;4.47;3.80;;;15.60;99.90;;;;;;4971927;28;21003;-67
2023/07/01 02:11:15;;;;;;;3.50;3.13;;;15.60;99.90;;;;;;4970672;28;20470;-67
2023/07/01 02:13:42;;;;;;;4.53;3.27;;;15.60;99.90;;;;;;4972632;28;20573;-66
2023/07/01 02:16:09;;;;;;;3.60;3.30;;;15.60;99.90;;;;;;4973066;28;20489;-66
2023/07/01 02:18:37;;;;;;;3.77;3.47;;;15.80;99.90;;;;;;4971580;28;20477;-69
2023/07/01 02:21:06;;;;;;;3.87;3.47;;;15.50;99.90;;;;;;4967614;28;20784;-67
2023/07/01 02:23:34;;;;;;;3.47;3.10;;;15.50;99.90;;;;;;4972211;28;20928;-68
2023/07/01 02:26:01;;;;;;;3.10;2.90;;;15.50;99.90;;;;;;4972365;28;20462;-67
2023/07/01 02:28:27;;;;;;;3.50;3.20;;;15.50;99.90;;;;;;4970457;28;21017;-66
2023/07/01 02:30:55;;;;;;;3.43;3.13;;;15.50;99.90;;;;;;4970261;28;20466;-67
2023/07/01 02:33:22;;;;;;;3.77;3.47;;;15.50;99.90;;;;;;4973643;28;20465;-68
2023/07/01 02:35:50;;;;;;;3.73;3.43;;;15.40;99.90;;;;;;4972501;28;20482;-67
2023/07/01 02:38:18;;;;;;;5.47;3.47;;;15.40;99.90;;;;;;4972873;28;20478;-67
2023/07/01 02:40:45;;;;;;;3.83;3.53;;;15.40;99.90;;;;;;4971698;28;20545;-66
2023/07/01 02:43:12;;;;;;;3.93;3.60;;;15.40;99.90;;;;;;4973091;28;20815;-67
2023/07/01 02:45:40;;;;;;;4.50;3.40;;;15.30;99.90;;;;;;4966864;28;20488;-66
2023/07/01 02:48:07;;;;;;;5.77;3.57;;;15.30;99.90;;;;;;4971344;28;20473;-66
2023/07/01 02:50:34;;;;;;;3.30;3.10;;;15.30;99.90;;;;;;4970658;28;20467;-67
2023/07/01 02:53:02;;;;;;;3.63;3.43;;;15.30;99.90;;;;;;4988984;28;20452;-67
2023/07/01 02:55:29;;;;;;;4.90;3.70;;;15.30;99.90;;;;;;4974325;28;20470;-66
2023/07/01 02:57:56;;;;;;;4.10;3.67;;;15.30;99.90;;;;;;4971325;28;20593;-67
2023/07/01 03:00:24;;;;;;;4.70;3.73;;;15.30;99.90;;;;;;4972039;28;20532;-67
2023/07/01 03:02:51;;;;;;;4.33;3.93;;;15.30;99.90;;;;;;4965043;28;20454;-67
2023/07/01 03:05:21;;;;;;;4.43;3.70;;;15.30;99.90;;;;;;4978679;28;20457;-67
2023/07/01 03:07:48;;;;;;;3.77;3.47;;;15.30;99.90;;;;;;4971038;28;21053;-67
2023/07/01 03:10:16;;;;;;;3.73;3.43;;;15.30;99.90;;;;;;4970953;28;20476;-67
2023/07/01 03:12:43;;;;;;;3.40;3.00;;;15.30;99.90;;;;;;4972540;28;20469;-67
2023/07/01 03:15:11;;;;;;;3.40;3.20;;;15.30;99.90;;;;;;4986795;28;20551;-67
2023/07/01 03:17:38;;;;;;;4.13;3.43;;;15.30;99.90;;;;;;4971928;28;20493;-67
2023/07/01 03:20:08;;;;;;;4.10;3.80;;;15.30;99.90;;;;;;4968181;28;20543;-67
2023/07/01 03:22:35;;;;;;;3.60;3.30;;;15.30;99.90;;;;;;4969527;28;20471;-67
2023/07/01 03:25:02;;;;;;;7.57;4.10;;;15.30;99.90;;;;;;4970914;28;20458;-67
2023/07/01 03:27:30;;;;;;;4.07;3.77;;;15.30;99.90;;;;;;4983109;28;20469;-67
2023/07/01 03:29:59;;;;;;;3.73;3.20;;;15.30;99.90;;;;;;4972005;28;20473;-67
2023/07/01 03:32:26;;;;;;;3.90;3.50;;;15.30;99.90;;;;;;4972017;28;21063;-67
2023/07/01 03:34:53;;;;;;;3.73;3.33;;;15.40;99.90;;;;;;4972746;28;20466;-67
2023/07/01 03:37:20;;;;;;;4.00;3.60;;;15.40;99.90;;;;;;4965140;28;21009;-67
2023/07/01 03:39:47;;;;;;;4.07;3.63;;;15.40;99.90;;;;;;4972433;28;22095;-67
2023/07/01 03:42:14;;;;;;;3.63;3.33;;;15.40;99.90;;;;;;4968235;28;20467;-65
2023/07/01 03:44:43;;;;;;;3.40;3.10;;;15.40;99.90;;;;;;4963562;28;20501;-69
2023/07/01 03:47:13;;;;;;;4.73;4.10;;;15.50;99.90;;;;;;4970032;28;20856;-69
2023/07/01 03:49:40;;;;;;;3.70;3.40;;;15.50;99.90;;;;;;4973232;28;21031;-69
2023/07/01 03:52:09;;;;;;;4.00;3.70;;;15.50;99.90;;;;;;4971628;28;20454;-68
2023/07/01 03:54:36;;;;;;;4.10;3.50;;;15.50;99.90;;;;;;4968828;28;20461;-68
2023/07/01 03:57:03;;;;;;;4.00;3.70;;;15.50;99.90;;;;;;4974767;28;20522;-69
2023/07/01 03:59:30;;;;;;;7.83;4.83;;;15.50;99.90;;;;;;4983289;28;20486;-69
2023/07/01 04:01:59;;;;;;;4.00;3.70;;;15.60;99.90;;;;;;4968154;28;21018;-69
2023/07/01 04:04:26;;;;;;;4.07;3.77;;;15.60;99.90;;;;;;4970144;28;20450;-68
2023/07/01 04:06:54;;;;;;;5.13;3.60;;;15.60;99.90;;;;;;4970392;28;20538;-69
2023/07/01 04:09:22;;;;;;;3.90;3.60;;;15.60;99.90;;;;;;4970345;28;20473;-69
2023/07/01 04:11:49;;;;;;;4.73;4.23;;;15.60;99.90;;;;;;4979110;28;20476;-69
2023/07/01 04:14:16;;;;;;;4.63;4.23;;;15.60;99.90;;;;;;4968628;28;20986;-68
2023/07/01 04:16:44;;;;;;;4.30;4.00;;;15.60;99.90;;;;;;4992581;28;20576;-69
2023/07/01 04:19:12;;;;;;;3.97;3.67;;;15.60;99.90;;;;;;4975079;28;20506;-68
2023/07/01 04:21:39;;;;;;;4.07;3.77;;;15.60;99.90;;;;;;4990791;28;20938;-69
2023/07/01 04:24:07;;;;;;;4.57;4.20;;;15.70;99.90;;;;;;4984509;28;20545;-68
2023/07/01 04:26:34;;;;;;;5.10;3.63;;;15.70;99.90;;;;;;4974212;28;20466;-69
2023/07/01 04:29:02;;;;;;;4.67;4.27;;;15.70;99.90;;;;;;4974269;28;20504;-70
2023/07/01 04:31:29;;;;;;;4.63;4.23;;;15.60;99.90;;;;;;4985006;28;20957;-69
2023/07/01 04:33:56;;;;;;;4.00;3.70;;;15.60;99.90;;;;;;4992850;28;20453;-69
2023/07/01 04:36:25;;;;;;;4.60;4.20;;;15.60;99.90;;;;;;4971148;28;20631;-68
2023/07/01 04:38:52;;;;;;;5.10;4.70;;;15.60;99.90;;;;;;4981031;28;20470;-68
2023/07/01 04:41:19;;;;;;;4.93;4.30;;;15.60;99.90;;;;;;4983560;28;20461;-68
2023/07/01 04:43:46;;;;;;;4.40;4.10;;;15.60;99.90;;;;;;4981793;28;20536;-69
2023/07/01 04:46:13;;;;;;;4.70;4.30;;;15.60;99.90;;;;;;4970460;28;21103;-68
2023/07/01 04:48:40;;;;;;;4.30;4.00;;;15.50;99.90;;;;;;4976495;28;20994;-68
2023/07/01 04:51:08;;;;;;;4.50;4.10;;;16.00;99.90;;;;;;4981718;28;20466;-68
2023/07/01 04:53:38;;;;;;;4.70;4.30;;;15.60;99.90;;;;;;4972869;28;20548;-68
2023/07/01 04:56:06;;;;;;;4.80;3.80;;;15.60;99.90;;;;;;4984695;28;20457;-69
2023/07/01 04:58:34;;;;;;;4.80;4.40;;;15.70;99.90;;;;;;4973161;28;20503;-68
2023/07/01 05:01:01;;;;;;;4.30;3.90;;;15.70;99.90;;;;;;4972588;28;20465;-68
2023/07/01 05:03:28;;;;;;;4.57;4.17;;;15.80;99.90;;;;;;4968621;28;20991;-68
2023/07/01 05:05:55;;;;;;;4.23;3.80;;;15.90;99.90;;;;;;4974718;28;20825;-68
2023/07/01 05:08:22;;;;;;;3.73;3.40;;;15.90;99.90;;;;;;4971748;28;20561;-68
2023/07/01 05:10:50;;;;;;;5.40;3.43;;;16.00;99.90;;;;;;4967901;28;20458;-69
2023/07/01 05:13:17;;;;;;;3.97;3.33;;;16.10;99.90;;;;;;4970178;28;20941;-68
2023/07/01 05:15:44;;;;;;;4.40;4.00;;;16.20;99.90;;;;;;4970283;28;20451;-68
2023/07/01 05:18:11;;;;;;;6.37;3.70;;;16.30;99.90;;;;;;4972585;28;20490;-68
2023/07/01 05:20:39;;;;;;;3.60;3.30;;;16.40;99.90;;;;;;4975494;28;20468;-67
2023/07/01 05:23:06;;;;;;;4.17;3.83;;;16.40;99.90;;;;;;4961363;28;20458;-67
2023/07/01 05:25:33;;;;;;;4.67;4.20;;;16.50;99.90;;;;;;4967592;28;20458;-66
2023/07/01 05:28:02;;;;;;;4.87;3.53;;;16.50;99.90;;;;;;4967942;28;20483;-66
2023/07/01 05:30:29;;;;;;;4.00;3.70;;;16.60;99.90;;;;;;4969349;28;20455;-66
2023/07/01 05:32:56;;;;;;;4.17;3.80;;;16.60;99.90;;;;;;4975305;28;20497;-67
2023/07/01 05:35:23;;;;;;;3.50;3.20;;;16.80;99.90;;;;;;4976271;28;20459;-67
2023/07/01 05:37:50;;;;;;;3.60;3.30;;;16.80;99.90;;;;;;4977803;28;20493;-67
2023/07/01 05:40:17;;;;;;;5.33;3.83;;;16.80;99.90;;;;;;4973299;28;20450;-66
2023/07/01 05:42:45;;;;;;;6.97;3.87;;;16.90;99.90;;;;;;4965091;28;20546;-66
2023/07/01 05:45:13;;;;;;;4.20;3.80;;;17.00;99.90;;;;;;4969824;28;20542;-66
2023/07/01 05:47:40;;;;;;;5.13;3.70;;;17.10;99.90;;;;;;4954216;28;21124;-67
2023/07/01 05:50:08;;;;;;;2.90;2.70;;;17.10;99.90;;;;;;4962310;28;20632;-67
2023/07/01 05:52:35;;;;;;;4.27;2.70;;;17.20;99.90;;;;;;4967770;28;20477;-67
2023/07/01 05:55:02;;;;;;;3.33;3.03;;;17.30;99.90;;;;;;4976439;28;20493;-67
2023/07/01 05:57:29;;;;;;;3.30;2.87;;;17.40;99.90;;;;;;4978129;28;20495;-68
2023/07/01 05:59:58;;;;;;;3.70;3.33;;;17.50;99.90;;;;;;4975693;28;21453;-67
2023/07/01 06:02:26;;;;;;;3.60;2.70;;;17.50;99.90;;;;;;4976268;28;20469;-67
2023/07/01 06:04:54;;;;;;;3.53;3.20;;;17.60;99.90;;;;;;4967731;28;20550;-67
2023/07/01 06:07:20;;;;;;;3.57;3.03;;;17.70;99.90;;;;;;4973023;28;20474;-67
2023/07/01 06:09:48;;;;;;;2.80;2.60;;;17.80;99.90;;;;;;4971662;28;20982;-66
2023/07/01 06:12:16;;;;;;;3.13;2.83;;;17.90;99.90;;;;;;4972876;28;20601;-67
2023/07/01 06:14:43;;;;;;;4.70;2.70;;;18.00;99.90;;;;;;4970921;28;20491;-70
2023/07/01 06:17:10;;;;;;;2.73;2.53;;;18.10;99.90;;;;;;4972889;28;20508;-67
2023/07/01 06:19:39;;;;;;;2.87;2.57;;;18.10;99.90;;;;;;4975419;28;20627;-67
2023/07/01 06:22:06;;;;;;;2.80;2.30;;;18.20;99.90;;;;;;4966317;28;21041;-68
2023/07/01 06:24:33;;;;;;;2.90;2.60;;;18.30;99.90;;;;;;4972157;28;20520;-69
2023/07/01 06:27:00;;;;;;;4.17;2.40;;;18.40;99.90;;;;;;4971434;28;20479;-69
2023/07/01 06:29:28;;;;;;;3.00;2.60;;;18.50;99.90;;;;;;4954886;28;20574;-68
2023/07/01 06:31:55;;;;;;;2.90;2.33;;;18.60;99.90;;;;;;4965838;28;20447;-68
2023/07/01 06:34:22;;;;;;;2.90;2.70;;;18.60;99.90;;;;;;4966615;28;20467;-69
2023/07/01 06:36:50;;;;;;;2.60;2.40;;;18.60;99.90;;;;;;4955282;28;20820;-68
2023/07/01 06:39:17;;;;;;;2.40;2.20;;;18.70;99.90;;;;;;4971107;28;20568;-67
2023/07/01 06:41:44;;;;;;;3.20;2.87;;;18.80;99.90;;;;;;4959433;28;20478;-68
2023/07/01 06:44:12;;;;;;;2.50;2.30;;;19.00;99.90;;;;;;4955511;28;21178;-68
2023/07/01 06:46:39;;;;;;;5.07;2.30;;;19.00;99.90;;;;;;4971890;28;20512;-67
2023/07/01 06:49:06;;;;;;;2.30;2.20;;;19.10;99.90;;;;;;4979412;28;20473;-67
2023/07/01 06:51:33;;;;;;;2.50;2.30;;;19.20;99.90;;;;;;4961854;28;20461;-68
2023/07/01 06:54:01;;;;;;;2.47;2.27;;;19.20;99.90;;;;;;4955503;28;20465;-69
2023/07/01 06:56:29;;;;;;;4.20;2.17;;;19.20;99.90;;;;;;4958792;28;20458;-69
2023/07/01 06:58:56;;;;;;;3.10;2.53;;;19.40;99.90;;;;;;4971915;28;20857;-68
2023/07/01 07:01:23;;;;;;;2.93;2.00;;;19.50;99.90;;;;;;4957715;28;20469;-67
2023/07/01 07:03:50;;;;;;;4.33;2.00;;;19.60;99.90;;;;;;4976210;28;20497;-66
2023/07/01 07:06:17;;;;;;;2.80;2.03;;;19.80;99.90;;;;;;4972897;28;20569;-61
2023/07/01 07:08:44;;;;;;;2.30;2.10;;;19.90;99.90;;;;;;4971274;28;20568;-67
2023/07/01 07:11:12;;;;;;;2.20;1.97;;;19.80;99.90;;;;;;4965132;28;20562;-67
2023/07/01 07:13:39;;;;;;;3.47;2.20;;;19.90;99.90;;;;;;4976053;28;20454;-67
2023/07/01 07:16:06;;;;;;;2.43;2.13;;;19.90;99.90;;;;;;4977580;28;20537;-67
2023/07/01 07:18:33;;;;;;;3.60;2.40;;;20.00;99.90;;;;;;4977582;28;20492;-67
2023/07/01 07:21:00;;;;;;;2.27;2.07;;;20.00;99.90;;;;;;4968343;28;20972;-65
2023/07/01 07:23:27;;;;;;;2.20;2.00;;;20.20;99.90;;;;;;4967789;28;20462;-67
2023/07/01 07:25:55;;;;;;;2.20;1.73;;;20.20;99.90;;;;;;4968597;28;20954;-67
2023/07/01 07:28:23;;;;;;;2.73;1.90;;;20.30;99.90;;;;;;4978821;28;20455;-68
2023/07/01 07:30:50;;;;;;;2.80;2.10;;;20.40;99.90;;;;;;4974499;28;21051;-68
2023/07/01 07:33:17;;;;;;;3.53;2.20;;;20.60;99.90;;;;;;4971698;28;20465;-68
2023/07/01 07:35:46;;;;;;;2.60;2.00;;;20.90;99.90;;;;;;4972704;28;20583;-67
2023/07/01 07:38:13;;;;;;;2.00;1.90;;;21.10;99.90;;;;;;4979150;28;20501;-67
2023/07/01 07:40:42;;;;;;;2.30;2.10;;;21.10;99.90;;;;;;4964714;28;20554;-67
2023/07/01 07:43:10;;;;;;;2.80;2.30;;;21.00;99.90;;;;;;4971154;28;20458;-67
2023/07/01 07:45:38;;;;;;;2.53;1.93;;;20.80;99.90;;;;;;4981827;28;20458;-67
2023/07/01 07:48:06;;;;;;;5.40;2.40;;;20.80;99.90;;;;;;4972073;28;20481;-67
2023/07/01 07:50:33;;;;;;;3.30;2.10;;;20.90;99.90;;;;;;4970599;28;20458;-67
2023/07/01 07:53:00;;;;;;;2.70;1.83;;;20.80;99.90;;;;;;4959888;28;20547;-66
2023/07/01 07:55:33;;;;;;;1.60;1.50;;;21.00;99.90;;;;;;4966883;28;20475;-66
2023/07/01 07:58:00;;;;;;;3.00;2.43;;;21.00;99.90;;;;;;4976379;28;20482;-66
2023/07/01 08:00:28;;;;;;;3.50;2.07;;;21.20;99.90;;;;;;4968774;28;20972;-66
2023/07/01 08:02:56;;;;;;;2.23;2.03;;;21.20;99.90;;;;;;4969755;28;20882;-66
2023/07/01 08:05:24;;;;;;;2.67;2.07;;;21.30;99.90;;;;;;4984998;28;20475;-66
2023/07/01 08:07:52;;;;;;;2.87;2.17;;;21.30;99.90;;;;;;4980660;28;20491;-65
2023/07/01 08:10:19;;;;;;;2.30;2.10;;;21.20;99.90;;;;;;4974620;28;20940;-66
2023/07/01 08:12:46;;;;;;;3.40;1.77;;;21.20;99.90;;;;;;4976062;28;20805;-67
2023/07/01 08:15:13;;;;;;;2.40;2.20;;;21.50;99.90;;;;;;4987873;28;20553;-66
2023/07/01 08:17:40;;;;;;;3.30;2.30;;;21.60;99.90;;;;;;4979765;28;21002;-66
2023/07/01 08:20:10;;;;;;;2.20;2.00;;;21.70;99.90;;;;;;4973333;28;20972;-66
2023/07/01 08:22:37;;;;;;;2.97;2.00;;;21.80;99.90;;;;;;4967746;28;20548;-66
2023/07/01 08:25:05;;;;;;;3.37;2.03;;;21.80;99.90;;;;;;4972561;28;20548;-66
2023/07/01 08:27:32;;;;;;;3.40;2.00;;;21.80;99.90;;;;;;4977946;28;20485;-66
2023/07/01 08:29:59;;;;;;;3.47;2.33;;;21.90;99.90;;;;;;4968544;28;20479;-66
2023/07/01 08:32:26;;;;;;;3.20;2.30;;;21.90;99.90;;;;;;4958459;28;20545;-61
2023/07/01 08:34:53;;;;;;;2.83;2.33;;;22.10;99.90;;;;;;4975643;28;20461;-66
2023/07/01 08:37:22;;;;;;;2.97;2.20;;;22.10;99.90;;;;;;4960830;28;20487;-66
2023/07/01 08:39:49;;;;;;;1.87;1.77;;;22.30;99.90;;;;;;4963252;28;20601;-67
2023/07/01 08:42:20;;;;;;;2.37;2.10;;;22.40;99.90;;;;;;4975998;28;20451;-66
2023/07/01 08:44:49;;;;;;;4.60;2.07;;;22.40;99.90;;;;;;4973232;28;20453;-66
2023/07/01 08:47:18;;;;;;;2.13;1.93;;;22.50;99.90;;;;;;4970898;28;20561;-64
2023/07/01 08:49:48;;;;;;;2.13;2.00;;;22.60;99.90;;;;;;4969416;28;20572;-85
2023/07/01 08:52:20;;;;;;;4.07;2.30;;;22.50;99.90;;;;;;4977516;28;20469;-85
2023/07/01 08:54:49;;;;;;;2.73;2.40;;;22.50;99.90;;;;;;4976792;28;20557;-82
2023/07/01 08:57:16;;;;;;;3.20;2.47;;;22.30;99.90;;;;;;4955656;28;20489;-65
2023/07/01 08:59:44;;;;;;;2.30;2.10;;;22.40;99.90;;;;;;4959078;28;20488;-66
2023/07/01 09:02:15;;;;;;;5.20;2.10;;;22.50;99.90;;;;;;4960491;28;20455;-65
2023/07/01 09:04:42;;;;;;;2.40;2.20;;;22.60;99.90;;;;;;4956507;28;21313;-65
2023/07/01 09:07:10;;;;;;;2.13;2.03;;;22.70;99.90;;;;;;4968871;28;20508;-65
2023/07/01 09:09:38;;;;;;;2.30;2.10;;;22.60;99.90;;;;;;4971619;28;20463;-65
2023/07/01 09:12:08;;;;;;;2.60;2.20;;;22.70;99.90;;;;;;4976547;28;20466;-65
2023/07/01 09:14:57;;;;;;;2.10;2.00;;;22.60;99.30;;;;;;4974804;28;20457;-66
2023/07/01 09:17:28;;;;;;;2.40;2.00;;;22.70;99.50;;;;;;4959737;28;20482;-66
2023/07/01 09:19:58;;;;;;;3.20;2.90;;;22.70;99.70;;;;;;4971148;28;20840;-65
2023/07/01 09:22:25;;;;;;;4.67;2.30;;;22.60;99.70;;;;;;4962360;28;20975;-65
2023/07/01 09:24:52;;;;;;;4.37;2.03;;;22.50;98.50;;;;;;4967722;28;20570;-65
2023/07/01 09:27:20;;;;;;;3.37;2.10;;;22.50;98.80;;;;;;4965025;28;20473;-65
2023/07/01 09:29:48;;;;;;;2.30;2.00;;;22.60;98.20;;;;;;4964459;28;20986;-65
2023/07/01 09:32:28;;;;;;;2.40;2.20;;;22.70;98.30;;;;;;4954350;28;20569;-65
2023/07/01 09:34:56;;;;;;;2.93;2.60;;;22.80;98.80;;;;;;4972440;28;20560;-65
2023/07/01 09:37:24;;;;;;;2.90;2.60;;;22.80;98.20;;;;;;4974865;28;20526;-65
2023/07/01 09:39:51;;;;;;;2.23;2.03;;;22.80;97.70;;;;;;4973920;28;20991;-65
2023/07/01 09:42:20;;;;;;;3.67;2.50;;;23.00;98.00;;;;;;4973890;28;20525;-65
2023/07/01 09:45:05;;;;;;;2.30;2.13;;;23.30;97.80;;;;;;4973269;28;20585;-66
2023/07/01 09:47:34;;;;;;;3.83;2.80;;;23.40;96.80;;;;;;4972330;28;20536;-65
2023/07/01 09:50:01;;;;;;;2.90;2.60;;;23.40;95.00;;;;;;4971726;28;20974;-66
2023/07/01 09:52:32;;;;;;;3.20;2.43;;;23.10;95.10;;;;;;4974085;28;20561;-65
2023/07/01 09:55:02;;;;;;;3.93;2.87;;;23.20;95.70;;;;;;4973937;28;20502;-64
2023/07/01 09:57:31;;;;;;;3.00;2.80;;;23.10;93.70;;;;;;4970715;28;20469;-65
2023/07/01 10:00:00;;;;;;;3.43;2.70;;;23.40;93.10;;;;;;4971680;28;20519;-64
2023/07/01 10:02:28;;;;;;;2.87;2.50;;;23.40;94.20;;;;;;4967402;28;20558;-65
2023/07/01 10:04:55;;;;;;;3.93;3.10;;;23.40;94.10;;;;;;4952256;28;20987;-64
2023/07/01 10:07:22;;;;;;;3.60;2.70;;;23.40;93.40;;;;;;4975625;28;20484;-63
2023/07/01 10:09:51;;;;;;;3.00;2.73;;;23.40;94.00;;;;;;4978317;28;20822;-67
2023/07/01 10:12:19;;;;;;;5.80;2.97;;;23.50;93.70;;;;;;4969912;28;21222;-65
2023/07/01 10:14:51;;;;;;;3.50;2.80;;;23.50;93.20;;;;;;4962047;28;20478;-66
2023/07/01 10:17:19;;;;;;;3.07;2.77;;;23.40;92.60;;;;;;4961697;28;20482;-67
2023/07/01 10:19:47;;;;;;;4.10;3.00;;;23.40;93.20;;;;;;4965969;28;20486;-64
2023/07/01 10:22:22;;;;;;;3.00;2.57;;;23.40;93.10;;;;;;4974505;28;20899;-65
2023/07/01 10:25:03;;;;;;;2.90;2.57;;;23.40;93.50;;;;;;4981247;28;20539;-64
2023/07/01 10:28:04;;;;;;;4.00;2.60;;;23.50;93.10;;;;;;4973270;28;21086;-67
2023/07/01 10:31:17;;;;;;;2.70;2.50;;;23.60;92.00;;;;;;4973133;28;20819;-65
2023/07/01 10:33:58;;;;;;;3.00;2.50;;;23.40;93.00;;;;;;4941015;28;20493;-65
2023/07/01 10:36:25;;;;;;;2.60;2.40;;;23.30;92.40;;;;;;4967060;28;20528;-65
2023/07/01 10:38:53;;;;;;;3.13;2.63;;;23.40;92.20;;;;;;4975866;28;20493;-65
2023/07/01 10:41:52;;;;;;;3.23;2.80;;;23.40;92.70;;;;;;4990327;28;20943;-65
2023/07/01 10:44:25;;;;;;;2.60;2.40;;;23.40;92.00;;;;;;4969534;28;20565;-68
2023/07/01 10:47:15;;;;;;;5.13;2.60;;;23.60;93.20;;;;;;4968597;28;20505;-69
2023/07/01 10:50:14;;;;;;;2.60;2.40;;;24.00;92.90;;;;;;4958148;28;20545;-66
2023/07/01 10:53:04;;;;;;;2.73;2.40;;;24.10;92.30;;;;;;4889527;29;20579;-66
2023/07/01 10:55:36;;;;;;;2.80;2.50;;;24.00;92.10;;;;;;4963039;28;21134;-64
2023/07/01 10:58:17;;;;;;;2.50;2.30;;;24.10;92.00;;;;;;4970306;28;20475;-66
2023/07/01 11:00:44;;;;;;;4.53;2.50;;;24.40;91.70;;;;;;4975456;28;20831;-65
2023/07/01 11:03:57;;;;;;;2.60;2.40;;;24.80;92.30;;;;;;4977744;28;20474;-63
2023/07/01 11:06:25;;;;;;;3.07;2.50;;;25.10;90.70;;;;;;4979307;28;20455;-63
2023/07/01 11:08:56;;;;;;;2.23;2.07;;;24.70;89.90;;;;;;4971117;28;20525;-63
2023/07/01 11:11:25;;;;;;;2.97;2.57;;;24.60;90.30;;;;;;4970017;28;20472;-65
2023/07/01 11:14:01;;;;;;;2.80;2.57;;;24.70;90.50;;;;;;4975304;28;20469;-63
2023/07/01 11:16:29;;;;;;;3.43;2.63;;;24.70;89.30;;;;;;4980059;28;20543;-63
2023/07/01 11:18:58;;;;;;;2.73;2.53;;;24.80;88.50;;;;;;4972607;28;20981;-64
2023/07/01 11:21:27;;;;;;;3.47;2.97;;;25.00;90.40;;;;;;4974820;28;20462;-65
2023/07/01 11:23:57;;;;;;;3.00;2.80;;;25.10;89.20;;;;;;4975235;28;20823;-64
2023/07/01 11:26:26;;;;;;;3.63;3.03;;;25.00;88.10;;;;;;4971445;28;20608;-63
2023/07/01 11:28:53;;;;;;;3.20;2.90;;;25.00;89.00;;;;;;4974651;28;20556;-63
2023/07/01 11:31:22;;;;;;;3.10;2.80;;;24.80;86.40;;;;;;4983386;28;21028;-64
2023/07/01 11:33:51;;;;;;;2.83;2.63;;;24.80;87.40;;;;;;4977462;28;20548;-63
2023/07/01 11:36:20;;;;;;;3.20;3.00;;;24.80;86.80;;;;;;4967534;28;22435;-63
2023/07/01 11:38:49;;;;;;;3.57;2.63;;;24.70;87.70;;;;;;4976148;28;20485;-64
2023/07/01 11:41:20;;;;;;;5.23;2.93;;;24.70;88.40;;;;;;4961790;28;20471;-64
2023/07/01 11:43:47;;;;;;;2.83;2.63;;;24.80;88.60;;;;;;4973690;28;20564;-65
2023/07/01 11:46:15;;;;;;;3.10;2.80;;;24.80;87.30;;;;;;4974967;28;20462;-64
2023/07/01 11:48:42;;;;;;;2.87;2.60;;;24.80;89.10;;;;;;4984831;28;20986;-65
2023/07/01 11:51:09;;;;;;;2.90;2.70;;;24.90;90.80;;;;;;4969416;28;20457;-64
2023/07/01 11:53:54;;;;;;;2.73;2.27;;;25.10;90.80;;;;;;4972093;28;20454;-63
2023/07/01 11:56:22;;;;;;;2.70;2.50;;;24.90;91.30;;;;;;4971670;28;20997;-64
2023/07/01 11:58:50;;;;;;;3.67;2.33;;;24.70;91.20;;;;;;4952031;28;20661;-65
2023/07/01 12:01:23;;;;;;;2.60;2.40;;;24.60;91.30;;;;;;4963583;28;21042;-65
2023/07/01 12:03:53;;;;;;;2.80;2.40;;;24.60;92.60;;;;;;4963715;28;20548;-64
2023/07/01 12:06:22;;;;;;;3.27;2.40;;;24.50;92.20;;;;;;4967765;28;20553;-64
2023/07/01 12:08:54;;;;;;;2.63;2.43;;;24.70;92.70;;;;;;4971711;28;20458;-63
2023/07/01 12:11:23;;;;;;;2.77;2.40;;;24.80;92.20;;;;;;4970447;28;20470;-65
2023/07/01 12:13:50;;;;;;;3.93;2.53;;;24.70;91.40;;;;;;4955190;28;20476;-64
2023/07/01 12:16:17;;;;;;;3.93;2.63;;;24.50;91.10;;;;;;4972377;28;20497;-66
2023/07/01 12:18:46;;;;;;;2.97;2.77;;;24.20;90.90;;;;;;4969958;28;20499;-66
2023/07/01 12:21:13;;;;;;;3.40;2.70;;;23.90;91.40;;;;;;4969070;28;20497;-63
2023/07/01 12:23:42;;;;;;;3.93;2.47;;;23.70;91.80;;;;;;4969386;28;20459;-63
2023/07/01 12:26:09;;;;;;;2.77;2.57;;;23.60;92.60;;;;;;4965382;28;20484;-64
2023/07/01 12:28:38;;;;;;;2.60;2.40;;;23.60;92.20;;;;;;4967814;28;20541;-64
2023/07/01 12:31:06;;;;;;;2.57;2.37;;;23.40;92.70;;;;;;4970022;28;20458;-64
2023/07/01 12:33:34;;;;;;;3.57;2.60;;;23.20;92.90;;;;;;4968622;28;20494;-64
2023/07/01 12:36:05;;;;;;;3.37;2.47;;;23.10;92.90;;;;;;4971960;28;20838;-63
2023/07/01 12:38:32;;;;;;;2.80;2.60;;;23.10;93.40;;;;;;4973110;28;20472;-64
2023/07/01 12:41:02;;;;;;;4.13;2.50;;;23.00;93.50;;;;;;4973516;28;20494;-64
2023/07/01 12:43:29;;;;;;;2.83;2.50;;;23.00;93.80;;;;;;4974016;28;21251;-64
2023/07/01 12:45:57;;;;;;;2.80;2.50;;;23.10;93.70;;;;;;4974669;28;20553;-64
2023/07/01 12:48:24;;;;;;;4.23;2.40;;;23.10;93.30;;;;;;4974468;28;21093;-65
2023/07/01 12:50:53;;;;;;;2.40;2.20;;;23.10;94.00;;;;;;4962309;28;20467;-65
2023/07/01 12:53:21;;;;;;;2.47;2.27;;;23.00;94.10;;;;;;4969627;28;20459;-63
2023/07/01 12:55:50;;;;;;;2.87;2.20;;;22.90;94.30;;;;;;4979999;28;20467;-64
2023/07/01 12:58:18;;;;;;;2.90;2.60;;;22.80;94.30;;;;;;4974294;28;20493;-63